createdAt,value
2022-09-28T00:01:37.728Z,1.90
2022-09-28T00:04:24.761Z,2.50
2022-09-28T00:07:12.066Z,2.30
2022-09-28T00:09:59.889Z,2.40
2022-09-28T00:12:47.226Z,2.50
2022-09-28T00:15:34.377Z,2.20
2022-09-28T00:18:23.260Z,2.10
2022-09-28T00:21:13.225Z,2.30
2022-09-28T00:24:15.158Z,2.37
2022-09-28T00:27:02.930Z,1.90
2022-09-28T00:29:50.243Z,2.10
2022-09-28T00:32:37.726Z,1.70
2022-09-28T00:35:26.390Z,2.10
2022-09-28T00:38:16.656Z,1.90
2022-09-28T00:41:05.379Z,2.27
2022-09-28T00:43:53.069Z,2.10
2022-09-28T00:46:40.890Z,2.30
2022-09-28T00:49:34.944Z,1.77
2022-09-28T00:52:28.992Z,2.13
2022-09-28T00:55:19.145Z,1.83
2022-09-28T00:58:09.834Z,2.23
2022-09-28T01:00:58.908Z,2.40
2022-09-28T01:03:48.617Z,2.20
2022-09-28T01:06:39.020Z,1.87
2022-09-28T01:09:28.827Z,2.17
2022-09-28T01:12:16.271Z,2.60
2022-09-28T01:15:04.669Z,2.67
2022-09-28T01:18:08.198Z,2.53
2022-09-28T01:21:03.908Z,2.67
2022-09-28T01:24:15.157Z,2.13
2022-09-28T01:27:10.880Z,2.30
2022-09-28T01:30:05.435Z,2.53
2022-09-28T01:32:57.041Z,2.13
2022-09-28T01:35:50.026Z,2.57
2022-09-28T01:38:42.596Z,2.40
2022-09-28T01:41:31.561Z,2.53
2022-09-28T01:44:22.613Z,2.40
2022-09-28T01:47:13.407Z,2.17
2022-09-28T01:50:05.865Z,2.60
2022-09-28T01:52:56.076Z,2.40
2022-09-28T01:55:48.798Z,2.63
2022-09-28T01:58:42.087Z,3.00
2022-09-28T02:01:38.355Z,2.77
2022-09-28T02:04:31.086Z,3.07
2022-09-28T02:07:24.859Z,3.30
2022-09-28T02:10:15.982Z,2.87
2022-09-28T02:13:06.857Z,3.27
2022-09-28T02:15:59.264Z,3.20
2022-09-28T02:18:48.046Z,3.20
2022-09-28T02:21:42.635Z,2.97
2022-09-28T02:24:36.877Z,2.90
2022-09-28T02:27:33.166Z,3.47
2022-09-28T02:30:20.575Z,3.37
2022-09-28T02:33:13.227Z,3.23
2022-09-28T02:36:03.425Z,3.20
2022-09-28T02:38:54.070Z,3.07
2022-09-28T02:41:55.881Z,3.60
2022-09-28T02:45:01.110Z,3.83
2022-09-28T02:48:04.189Z,3.20
2022-09-28T02:51:04.011Z,3.70
2022-09-28T02:54:22.776Z,3.40
2022-09-28T02:57:18.838Z,3.57
2022-09-28T03:00:08.654Z,3.47
2022-09-28T03:03:05.137Z,3.30
2022-09-28T03:06:01.426Z,3.10
2022-09-28T03:09:01.329Z,3.53
2022-09-28T03:11:56.701Z,3.63
2022-09-28T03:14:43.738Z,3.67
2022-09-28T03:17:31.350Z,3.40
2022-09-28T03:20:18.567Z,3.80
2022-09-28T03:23:23.920Z,3.27
2022-09-28T03:26:13.956Z,3.30
2022-09-28T03:29:01.115Z,3.90
2022-09-28T03:31:49.115Z,4.00
2022-09-28T03:34:36.509Z,3.80
2022-09-28T03:37:23.682Z,3.40
2022-09-28T03:40:11.544Z,3.77
2022-09-28T03:43:01.200Z,3.50
2022-09-28T03:45:53.862Z,3.40
2022-09-28T03:48:41.754Z,3.43
2022-09-28T03:51:30.551Z,3.33
2022-09-28T03:54:17.604Z,3.30
2022-09-28T03:57:04.973Z,3.60
2022-09-28T03:59:53.702Z,3.47
2022-09-28T04:02:41.093Z,3.40
2022-09-28T04:05:28.712Z,3.50
2022-09-28T04:08:16.022Z,3.27
2022-09-28T04:11:03.211Z,4.10
2022-09-28T04:13:50.744Z,3.50
2022-09-28T04:16:39.339Z,3.27
2022-09-28T04:19:31.823Z,3.50
2022-09-28T04:22:31.187Z,3.30
2022-09-28T04:25:18.481Z,3.33
2022-09-28T04:28:23.233Z,3.63
2022-09-28T04:31:12.115Z,3.40
2022-09-28T04:34:00.682Z,4.03
2022-09-28T04:36:48.827Z,3.47
2022-09-28T04:39:35.858Z,3.87
2022-09-28T04:42:23.075Z,4.03
2022-09-28T04:45:11.905Z,3.93
2022-09-28T04:48:03.333Z,3.73
2022-09-28T04:51:05.616Z,4.27
2022-09-28T04:53:52.797Z,4.33
2022-09-28T04:56:41.141Z,3.87
2022-09-28T04:59:28.321Z,3.63
2022-09-28T05:02:15.625Z,4.07
2022-09-28T05:05:21.419Z,3.97
2022-09-28T05:08:26.291Z,3.57
2022-09-28T05:11:14.733Z,3.90
2022-09-28T05:14:02.187Z,3.80
2022-09-28T05:16:49.217Z,4.00
2022-09-28T05:19:56.534Z,3.57
2022-09-28T05:22:43.455Z,4.67
2022-09-28T05:25:32.100Z,4.03
2022-09-28T05:28:31.926Z,4.03
2022-09-28T05:31:45.207Z,4.33
2022-09-28T05:34:40.947Z,3.90
2022-09-28T05:37:31.026Z,4.10
2022-09-28T05:40:18.809Z,4.27
2022-09-28T05:43:07.311Z,3.87
2022-09-28T05:45:55.864Z,4.47
2022-09-28T05:48:42.998Z,3.40
2022-09-28T05:51:30.170Z,3.73
2022-09-28T05:54:18.198Z,4.10
2022-09-28T05:57:07.183Z,3.70
2022-09-28T05:59:56.346Z,4.20
2022-09-28T06:02:43.755Z,3.77
2022-09-28T06:05:36.058Z,3.63
2022-09-28T06:08:23.388Z,3.43
2022-09-28T06:11:18.689Z,4.07
2022-09-28T06:14:06.327Z,3.97
2022-09-28T06:16:55.095Z,4.07
2022-09-28T06:19:44.069Z,4.07
2022-09-28T06:22:57.469Z,4.43
2022-09-28T06:25:45.082Z,3.57
2022-09-28T06:28:32.192Z,3.40
2022-09-28T06:31:19.812Z,3.00
2022-09-28T06:34:12.658Z,2.92
2022-09-28T06:36:59.836Z,3.13
2022-09-28T06:39:47.883Z,3.20
2022-09-28T06:42:35.301Z,3.10
2022-09-28T06:45:41.002Z,3.00
2022-09-28T06:48:42.705Z,2.90
2022-09-28T06:51:34.203Z,3.05
2022-09-28T06:54:31.532Z,2.97
2022-09-28T06:57:27.395Z,2.72
2022-09-28T07:00:15.762Z,3.10
2022-09-28T07:03:08.443Z,2.90
2022-09-28T07:06:16.265Z,3.55
2022-09-28T07:09:35.883Z,3.40
2022-09-28T07:12:36.159Z,2.95
2022-09-28T07:15:32.818Z,3.42
2022-09-28T07:18:20.626Z,3.42
2022-09-28T07:21:12.191Z,3.53
2022-09-28T07:24:04.091Z,3.45
2022-09-28T07:27:11.373Z,3.55
2022-09-28T07:30:13.838Z,3.40
2022-09-28T07:33:22.017Z,3.40
2022-09-28T07:36:29.846Z,3.38
2022-09-28T07:39:17.713Z,3.55
2022-09-28T07:42:03.869Z,4.00
2022-09-28T07:44:53.243Z,3.50
2022-09-28T07:47:40.236Z,3.63
2022-09-28T07:50:51.619Z,4.43
2022-09-28T07:54:11.257Z,3.55
2022-09-28T07:57:16.292Z,3.50
2022-09-28T08:00:14.061Z,3.58
2022-09-28T08:03:01.916Z,3.58
2022-09-28T08:05:51.200Z,3.80
2022-09-28T08:08:38.775Z,3.88
2022-09-28T08:11:26.107Z,3.53
2022-09-28T08:14:34.605Z,3.40
2022-09-28T08:17:38.341Z,3.97
2022-09-28T08:20:48.184Z,3.55
2022-09-28T08:23:38.817Z,3.10
2022-09-28T08:26:26.776Z,3.20
2022-09-28T08:29:15.227Z,2.92
2022-09-28T08:32:18.289Z,3.30
2022-09-28T08:35:26.226Z,3.38
2022-09-28T08:38:30.955Z,2.90
2022-09-28T08:41:46.380Z,3.03
2022-09-28T08:44:48.919Z,2.72
2022-09-28T08:48:10.451Z,2.70
2022-09-28T08:51:29.912Z,2.95
2022-09-28T08:54:41.687Z,2.17
2022-09-28T08:57:41.938Z,2.60
2022-09-28T09:00:34.953Z,2.15
2022-09-28T09:03:26.378Z,2.15
2022-09-28T09:06:41.222Z,2.05
2022-09-28T09:09:58.500Z,2.10
2022-09-28T09:15:54.049Z,1.50
2022-09-28T09:19:10.934Z,1.30
2022-09-28T09:22:18.325Z,1.13
2022-09-28T09:25:19.123Z,1.15
2022-09-28T09:28:45.190Z,1.23
2022-09-28T09:31:44.795Z,1.70
2022-09-28T09:34:56.661Z,1.58
2022-09-28T09:38:22.003Z,1.20
2022-09-28T09:41:38.126Z,1.38
2022-09-28T09:45:11.295Z,1.35
2022-09-28T09:48:25.186Z,1.40
2022-09-28T09:51:20.582Z,1.30
2022-09-28T09:54:17.620Z,1.30
2022-09-28T09:57:11.101Z,0.90
2022-09-28T10:00:14.510Z,1.10
2022-09-28T10:03:07.386Z,1.00
2022-09-28T10:06:02.863Z,0.90
2022-09-28T10:08:58.630Z,1.13
2022-09-28T10:11:50.163Z,1.02
2022-09-28T10:14:37.393Z,1.17
2022-09-28T10:17:28.140Z,1.10
2022-09-28T10:20:54.086Z,1.02
2022-09-28T10:23:56.313Z,1.42
2022-09-28T10:26:47.774Z,1.08
2022-09-28T10:29:45.207Z,1.08
2022-09-28T10:32:39.219Z,0.98
2022-09-28T10:35:30.031Z,1.13
2022-09-28T10:38:20.885Z,1.30
2022-09-28T10:41:13.433Z,1.50
2022-09-28T10:44:22.912Z,1.35
2022-09-28T10:47:25.057Z,1.75
2022-09-28T10:50:22.079Z,1.52
2022-09-28T10:53:17.534Z,1.75
2022-09-28T10:56:32.775Z,1.60
2022-09-28T10:59:36.686Z,1.75
2022-09-28T11:02:43.240Z,1.50
2022-09-28T11:05:35.925Z,1.50
2022-09-28T11:08:28.230Z,2.25
2022-09-28T11:11:20.402Z,1.60
2022-09-28T11:14:26.258Z,1.75
2022-09-28T11:17:25.533Z,1.95
2022-09-28T11:20:34.458Z,2.05
2022-09-28T11:23:31.101Z,1.73
2022-09-28T11:26:26.547Z,1.80
2022-09-28T11:29:22.304Z,1.77
2022-09-28T11:32:22.759Z,2.10
2022-09-28T11:35:42.381Z,1.88
2022-09-28T11:38:34.869Z,1.73
2022-09-28T11:41:48.758Z,1.85
2022-09-28T11:44:44.535Z,1.73
2022-09-28T11:47:45.793Z,2.03
2022-09-28T11:50:45.785Z,1.65
2022-09-28T11:53:36.975Z,1.88
2022-09-28T11:56:33.361Z,1.67
2022-09-28T11:59:27.528Z,1.50
2022-09-28T12:02:22.097Z,1.70
2022-09-28T12:05:21.133Z,1.20
2022-09-28T12:08:17.314Z,0.90
2022-09-28T12:11:22.687Z,0.98
2022-09-28T12:14:41.600Z,0.90
2022-09-28T12:17:34.931Z,0.90
2022-09-28T12:20:26.536Z,1.33
2022-09-28T12:23:19.369Z,1.00
2022-09-28T12:26:16.603Z,1.23
2022-09-28T12:29:07.641Z,1.23
2022-09-28T12:32:05.367Z,1.27
2022-09-28T12:34:52.676Z,1.10
2022-09-28T12:37:56.570Z,1.10
2022-09-28T12:40:53.536Z,1.10
2022-09-28T12:44:02.098Z,0.80
2022-09-28T12:47:13.851Z,1.05
2022-09-28T12:50:37.951Z,1.00
2022-09-28T12:53:40.098Z,1.20
2022-09-28T12:56:40.819Z,0.88
2022-09-28T12:59:32.971Z,1.00
2022-09-28T13:02:39.633Z,0.90
2022-09-28T13:05:58.009Z,0.75
2022-09-28T13:08:57.544Z,1.08
2022-09-28T13:12:09.911Z,1.30
2022-09-28T13:15:23.593Z,1.33
2022-09-28T13:18:19.782Z,0.95
2022-09-28T13:21:15.993Z,1.00
2022-09-28T13:24:27.867Z,1.13
2022-09-28T13:27:19.309Z,1.13
2022-09-28T13:30:07.899Z,0.90
2022-09-28T13:32:57.626Z,0.80
2022-09-28T13:35:44.952Z,1.00
2022-09-28T13:38:50.210Z,0.90
2022-09-28T13:41:38.772Z,0.98
2022-09-28T13:44:42.522Z,0.93
2022-09-28T13:47:56.157Z,0.88
2022-09-28T13:51:08.521Z,1.02
2022-09-28T13:54:23.259Z,0.88
2022-09-28T13:57:19.828Z,1.10
2022-09-28T14:00:21.745Z,1.23
2022-09-28T14:03:25.166Z,1.67
2022-09-28T14:06:27.241Z,1.10
2022-09-28T14:09:43.779Z,1.13
2022-09-28T14:12:47.458Z,1.17
2022-09-28T14:15:45.918Z,0.73
2022-09-28T14:18:34.558Z,0.80
2022-09-28T14:21:59.237Z,1.10
2022-09-28T14:25:04.176Z,0.90
2022-09-28T14:28:03.422Z,1.35
2022-09-28T14:30:58.049Z,0.98
2022-09-28T14:33:56.958Z,1.00
2022-09-28T14:37:07.434Z,1.05
2022-09-28T14:40:20.868Z,1.30
2022-09-28T14:43:24.612Z,1.30
2022-09-28T14:46:29.368Z,1.15
2022-09-28T14:49:51.240Z,0.95
2022-09-28T14:52:42.669Z,1.00
2022-09-28T14:55:33.761Z,1.00
2022-09-28T14:58:25.046Z,1.08
2022-09-28T15:01:20.166Z,0.77
2022-09-28T15:04:13.534Z,0.80
2022-09-28T15:07:00.714Z,0.85
2022-09-28T15:09:50.569Z,1.00
2022-09-28T15:12:37.664Z,1.10
2022-09-28T15:15:29.423Z,1.10
2022-09-28T15:18:58.619Z,1.10
2022-09-28T15:21:48.583Z,0.90
2022-09-28T15:24:36.092Z,1.00
2022-09-28T15:27:23.749Z,1.00
2022-09-28T15:30:22.383Z,1.10
2022-09-28T15:33:42.497Z,1.30
2022-09-28T15:36:32.581Z,1.10
2022-09-28T15:39:24.289Z,1.20
2022-09-28T15:42:11.607Z,1.27
2022-09-28T15:45:06.115Z,1.00
2022-09-28T15:47:58.426Z,1.13
2022-09-28T15:50:59.162Z,1.20
2022-09-28T15:53:52.917Z,1.15
2022-09-28T15:56:54.733Z,1.42
2022-09-28T15:59:43.901Z,1.35
2022-09-28T16:02:31.317Z,1.20
2022-09-28T16:05:35.998Z,1.20
2022-09-28T16:08:25.560Z,1.40
2022-09-28T16:11:18.148Z,1.20
2022-09-28T16:14:18.230Z,1.25
2022-09-28T16:17:05.617Z,1.20
2022-09-28T16:19:53.031Z,1.35
2022-09-28T16:22:43.969Z,1.40
2022-09-28T16:25:31.442Z,1.70
2022-09-28T16:28:28.834Z,2.00
2022-09-28T16:31:34.462Z,2.77
2022-09-28T16:34:26.372Z,2.17
2022-09-28T16:37:32.176Z,1.37
2022-09-28T16:40:19.113Z,1.43
2022-09-28T16:43:08.363Z,1.50
2022-09-28T16:45:57.972Z,1.60
2022-09-28T16:48:49.469Z,1.55
2022-09-28T16:51:40.041Z,1.70
2022-09-28T16:54:44.671Z,1.63
2022-09-28T16:57:31.763Z,1.47
2022-09-28T17:00:22.834Z,1.70
2022-09-28T17:03:14.988Z,1.40
2022-09-28T17:06:06.094Z,1.80
2022-09-28T17:08:55.059Z,1.70
2022-09-28T17:11:42.103Z,1.83
2022-09-28T17:14:29.479Z,1.90
2022-09-28T17:17:17.312Z,2.13
2022-09-28T17:20:16.786Z,2.20
2022-09-28T17:23:05.378Z,2.00
2022-09-28T17:25:54.476Z,2.13
2022-09-28T17:28:41.929Z,2.50
2022-09-28T17:31:29.960Z,2.50
2022-09-28T17:34:17.744Z,2.63
2022-09-28T17:37:04.822Z,3.10
2022-09-28T17:39:53.690Z,3.40
2022-09-28T17:42:41.028Z,3.17
2022-09-28T17:45:31.328Z,2.67
2022-09-28T17:48:23.331Z,2.57
2022-09-28T17:51:10.870Z,2.50
2022-09-28T17:53:58.798Z,2.30
2022-09-28T17:56:47.320Z,2.80
2022-09-28T17:59:34.639Z,2.77
2022-09-28T18:02:25.090Z,4.17
2022-09-28T18:05:14.622Z,3.00
2022-09-28T18:08:02.236Z,3.00
2022-09-28T18:10:51.480Z,2.67
2022-09-28T18:13:40.579Z,2.50
2022-09-28T18:16:28.643Z,2.77
2022-09-28T18:19:16.103Z,2.60
2022-09-28T18:22:03.171Z,2.47
2022-09-28T18:24:50.331Z,2.75
2022-09-28T18:27:37.369Z,2.90
2022-09-28T18:30:26.108Z,2.90
2022-09-28T18:33:14.493Z,2.50
2022-09-28T18:36:02.134Z,2.50
2022-09-28T18:38:50.148Z,2.83
2022-09-28T18:41:37.598Z,2.87
2022-09-28T18:44:25.098Z,3.00
2022-09-28T18:47:15.032Z,3.00
2022-09-28T18:50:02.195Z,2.80
2022-09-28T18:52:49.445Z,3.07
2022-09-28T18:55:37.362Z,3.30
2022-09-28T18:58:24.684Z,3.27
2022-09-28T19:01:30.904Z,3.10
2022-09-28T19:04:21.110Z,3.37
2022-09-28T19:07:08.978Z,3.03
2022-09-28T19:09:56.255Z,3.73
2022-09-28T19:12:43.968Z,3.63
2022-09-28T19:15:31.725Z,3.20
2022-09-28T19:18:19.483Z,3.40
2022-09-28T19:21:10.342Z,3.30
2022-09-28T19:24:01.090Z,3.67
2022-09-28T19:26:49.463Z,3.93
2022-09-28T19:29:36.681Z,4.30
2022-09-28T19:32:23.823Z,5.47
2022-09-28T19:35:11.398Z,5.00
2022-09-28T19:38:00.043Z,5.03
2022-09-28T19:40:47.538Z,5.07
2022-09-28T19:43:34.896Z,5.30
2022-09-28T19:46:22.421Z,5.20
2022-09-28T19:49:12.443Z,5.70
2022-09-28T19:52:16.183Z,4.73
2022-09-28T19:55:05.916Z,5.20
2022-09-28T19:57:53.422Z,5.50
2022-09-28T20:00:40.514Z,4.90
2022-09-28T20:03:28.215Z,4.90
2022-09-28T20:06:17.423Z,5.30
2022-09-28T20:09:05.743Z,5.10
2022-09-28T20:11:54.589Z,5.20
2022-09-28T20:14:41.627Z,4.90
2022-09-28T20:17:29.232Z,5.43
2022-09-28T20:20:16.614Z,5.20
2022-09-28T20:23:04.580Z,5.23
2022-09-28T20:25:53.616Z,5.83
2022-09-28T20:28:43.099Z,5.43
2022-09-28T20:31:30.298Z,5.07
2022-09-28T20:34:17.713Z,5.50
2022-09-28T20:37:05.305Z,4.60
2022-09-28T20:39:53.131Z,5.30
2022-09-28T20:42:42.067Z,4.50
2022-09-28T20:45:30.456Z,4.53
2022-09-28T20:48:18.239Z,4.87
2022-09-28T20:51:10.145Z,4.37
2022-09-28T20:53:59.009Z,4.27
2022-09-28T20:56:48.025Z,4.60
2022-09-28T20:59:35.120Z,4.53
2022-09-28T21:02:23.722Z,3.93
2022-09-28T21:05:10.740Z,3.93
2022-09-28T21:07:59.456Z,3.73
2022-09-28T21:10:46.767Z,4.40
2022-09-28T21:13:34.751Z,3.63
2022-09-28T21:16:22.595Z,3.87
2022-09-28T21:19:10.845Z,3.80
2022-09-28T21:21:58.304Z,3.90
2022-09-28T21:24:45.350Z,4.10
2022-09-28T21:27:32.706Z,3.73
2022-09-28T21:30:20.130Z,3.60
2022-09-28T21:33:07.466Z,3.67
2022-09-28T21:35:56.090Z,2.83
2022-09-28T21:38:43.371Z,3.60
2022-09-28T21:41:30.781Z,3.50
2022-09-28T21:44:17.956Z,3.13
2022-09-28T21:47:05.498Z,3.50
2022-09-28T21:49:52.785Z,3.60
2022-09-28T21:52:41.189Z,3.30
2022-09-28T21:55:28.458Z,4.10
2022-09-28T21:58:15.884Z,3.47
2022-09-28T22:01:05.445Z,3.30
2022-09-28T22:03:54.163Z,3.57
2022-09-28T22:06:41.566Z,3.57
2022-09-28T22:09:30.311Z,4.23
2022-09-28T22:12:17.747Z,3.50
2022-09-28T22:15:05.865Z,4.00
2022-09-28T22:17:53.051Z,3.77
2022-09-28T22:20:40.340Z,3.70
2022-09-28T22:23:27.650Z,4.10
2022-09-28T22:26:19.384Z,4.00
2022-09-28T22:29:08.654Z,4.33
2022-09-28T22:32:00.136Z,4.77
2022-09-28T22:34:47.266Z,5.27
2022-09-28T22:37:34.435Z,5.90
2022-09-28T22:40:21.619Z,5.67
2022-09-28T22:43:10.198Z,5.37
2022-09-28T22:46:05.239Z,5.00
2022-09-28T22:48:53.625Z,4.37
2022-09-28T22:51:40.810Z,4.70
2022-09-28T22:54:28.149Z,3.93
2022-09-28T22:57:15.358Z,4.67
2022-09-28T23:00:04.668Z,4.40
2022-09-28T23:02:51.953Z,3.80
2022-09-28T23:05:39.090Z,4.20
2022-09-28T23:08:26.347Z,3.87
2022-09-28T23:11:13.744Z,4.40
2022-09-28T23:14:01.040Z,4.50
2022-09-28T23:16:49.528Z,4.23
2022-09-28T23:19:36.491Z,4.40
2022-09-28T23:22:23.721Z,4.37
2022-09-28T23:25:11.143Z,4.33
2022-09-28T23:27:58.313Z,4.00
2022-09-28T23:30:45.535Z,4.67
2022-09-28T23:33:34.479Z,4.17
2022-09-28T23:36:21.873Z,4.47
2022-09-28T23:39:11.659Z,4.23
2022-09-28T23:41:59.341Z,4.43
2022-09-28T23:44:46.561Z,4.63
2022-09-28T23:47:33.993Z,4.40
2022-09-28T23:50:23.678Z,4.77
2022-09-28T23:53:11.751Z,4.77
2022-09-28T23:55:59.143Z,4.50
2022-09-28T23:58:46.362Z,4.83
